Time;durP1;ratioP1;P1;durP2;ratioP2;P2;SDS_P1;SDS_P2;PMS_P1;PMS_P2;Temp;Humidity;BMP_temperature;BMP_pressure;BME280_temperature;BME280_humidity;BME280_pressure;Samples;Min_cycle;Max_cycle;Signal;HPM_P1;HPM_P2
2021/04/20 00:00:10;;;;;;;67.17;41.10;;;6.90;99.90;;;;;;4980934;28;20208;-72
2021/04/20 00:02:37;;;;;;;72.37;43.30;;;6.90;99.90;;;;;;4980329;28;20864;-70
2021/04/20 00:05:06;;;;;;;66.33;41.30;;;6.90;99.90;;;;;;4979209;28;20629;-70
2021/04/20 00:07:33;;;;;;;70.30;43.20;;;6.80;99.90;;;;;;4978615;28;20614;-71
2021/04/20 00:09:59;;;;;;;69.63;41.77;;;6.70;99.90;;;;;;4981735;28;20206;-70
2021/04/20 00:12:25;;;;;;;70.30;41.97;;;6.60;99.90;;;;;;4981953;28;20194;-71
2021/04/20 00:14:52;;;;;;;69.40;42.47;;;6.60;99.90;;;;;;4987198;28;20201;-72
2021/04/20 00:17:19;;;;;;;75.53;45.30;;;6.50;99.90;;;;;;4990267;28;20217;-71
2021/04/20 00:19:46;;;;;;;75.47;44.40;;;6.60;99.90;;;;;;4991179;28;20602;-71
2021/04/20 00:22:12;;;;;;;70.50;42.67;;;6.50;99.90;;;;;;4991093;28;20655;-70
2021/04/20 00:24:39;;;;;;;73.30;44.87;;;6.40;99.90;;;;;;4989521;28;20197;-70
2021/04/20 00:27:06;;;;;;;77.83;45.23;;;6.30;99.90;;;;;;4990182;28;20205;-72
2021/04/20 00:29:32;;;;;;;76.13;45.70;;;6.30;99.90;;;;;;4990288;28;20568;-72
2021/04/20 00:31:59;;;;;;;75.93;45.73;;;6.20;99.90;;;;;;4990949;28;20733;-71
2021/04/20 00:34:26;;;;;;;79.03;45.90;;;6.10;99.90;;;;;;4989685;28;20212;-71
2021/04/20 00:36:52;;;;;;;86.07;48.83;;;6.10;99.90;;;;;;4990412;28;20859;-71
2021/04/20 00:39:19;;;;;;;85.20;47.53;;;6.00;99.90;;;;;;4991024;28;20575;-71
2021/04/20 00:41:45;;;;;;;91.80;49.93;;;6.20;99.90;;;;;;4990752;28;20209;-72
2021/04/20 00:44:12;;;;;;;78.67;46.23;;;6.10;99.90;;;;;;4989129;28;20205;-71
2021/04/20 00:46:38;;;;;;;85.70;49.07;;;6.00;99.90;;;;;;4990685;28;20194;-69
2021/04/20 00:49:04;;;;;;;82.90;46.63;;;6.00;99.90;;;;;;4989617;28;20201;-72
2021/04/20 00:51:32;;;;;;;84.00;48.50;;;5.90;99.90;;;;;;4990827;28;20221;-72
2021/04/20 00:53:58;;;;;;;77.03;46.07;;;5.80;99.90;;;;;;4990061;28;20205;-72
2021/04/20 00:56:25;;;;;;;79.83;48.27;;;5.80;99.90;;;;;;4990422;28;20197;-71
2021/04/20 00:58:51;;;;;;;87.00;47.53;;;5.70;99.90;;;;;;4989187;28;20287;-71
2021/04/20 01:01:18;;;;;;;88.80;50.47;;;5.70;99.90;;;;;;4988880;28;20201;-72
2021/04/20 01:03:44;;;;;;;93.07;50.97;;;5.70;99.90;;;;;;4990048;28;20206;-71
2021/04/20 01:06:11;;;;;;;89.30;50.40;;;5.70;99.90;;;;;;4988003;28;20254;-73
2021/04/20 01:08:41;;;;;;;91.87;51.57;;;5.60;99.90;;;;;;4999499;28;20202;-72
2021/04/20 01:11:07;;;;;;;91.43;48.97;;;5.60;99.90;;;;;;4973138;28;20209;-71
2021/04/20 01:13:35;;;;;;;92.87;51.27;;;5.60;99.90;;;;;;4990152;28;20737;-71
2021/04/20 01:16:01;;;;;;;96.57;50.77;;;5.60;99.90;;;;;;4990186;28;20222;-71
2021/04/20 01:18:30;;;;;;;98.30;50.73;;;5.70;99.90;;;;;;4989936;28;20236;-71
2021/04/20 01:20:58;;;;;;;101.77;53.27;;;5.70;99.90;;;;;;4989140;28;20206;-71
2021/04/20 01:23:35;;;;;;;102.37;53.30;;;5.60;99.90;;;;;;4988918;28;20201;-72
2021/04/20 01:26:03;;;;;;;98.93;53.33;;;5.60;99.90;;;;;;4987347;28;20198;-70
2021/04/20 01:28:30;;;;;;;108.50;55.73;;;5.50;99.90;;;;;;4989425;28;20679;-72
2021/04/20 01:30:58;;;;;;;105.07;53.87;;;5.50;99.90;;;;;;4982282;28;20201;-72
2021/04/20 01:33:25;;;;;;;103.00;52.63;;;5.40;99.90;;;;;;4963281;28;20411;-73
2021/04/20 01:35:51;;;;;;;101.97;53.53;;;5.40;99.90;;;;;;4958705;28;20251;-71
2021/04/20 01:38:18;;;;;;;100.87;52.90;;;5.30;99.90;;;;;;4959611;28;20280;-72
2021/04/20 01:40:45;;;;;;;101.53;52.60;;;5.30;99.90;;;;;;4959870;28;20237;-72
2021/04/20 01:43:13;;;;;;;99.47;53.07;;;5.30;99.90;;;;;;4960715;28;20205;-72
2021/04/20 01:45:41;;;;;;;103.20;52.20;;;5.20;99.90;;;;;;4962406;28;20234;-73
2021/04/20 01:48:08;;;;;;;107.13;54.90;;;5.10;99.90;;;;;;4969004;28;20201;-71
2021/04/20 01:50:35;;;;;;;110.10;55.43;;;5.10;99.90;;;;;;4969109;28;20628;-71
2021/04/20 01:53:02;;;;;;;106.23;54.57;;;5.10;99.90;;;;;;4970151;28;20199;-72
2021/04/20 01:55:28;;;;;;;104.10;53.23;;;5.10;99.90;;;;;;4969824;28;20202;-71
2021/04/20 01:57:56;;;;;;;107.70;55.60;;;5.10;99.90;;;;;;4969354;28;20253;-72
2021/04/20 02:00:25;;;;;;;99.77;53.83;;;5.10;99.90;;;;;;4969901;28;20198;-71
2021/04/20 02:02:52;;;;;;;108.87;54.53;;;5.00;99.90;;;;;;4969657;28;20254;-71
2021/04/20 02:05:20;;;;;;;100.20;53.07;;;5.00;99.90;;;;;;4973284;28;20229;-71
2021/04/20 02:07:46;;;;;;;100.60;52.50;;;5.00;99.90;;;;;;4990067;28;20194;-71
2021/04/20 02:10:14;;;;;;;106.70;52.60;;;5.00;99.90;;;;;;4969058;28;20565;-71
2021/04/20 02:12:42;;;;;;;103.10;52.70;;;5.00;99.90;;;;;;4969226;28;20240;-71
2021/04/20 02:15:11;;;;;;;106.67;55.90;;;4.90;99.90;;;;;;4970051;28;20201;-71
2021/04/20 02:17:39;;;;;;;109.60;54.77;;;4.90;99.90;;;;;;4969181;28;20273;-70
2021/04/20 02:20:07;;;;;;;120.37;59.53;;;4.90;99.90;;;;;;4968997;28;20232;-72
2021/04/20 02:22:36;;;;;;;131.23;63.07;;;4.90;99.90;;;;;;4970171;28;20202;-69
2021/04/20 02:25:05;;;;;;;126.80;61.73;;;5.10;99.90;;;;;;4970052;28;20198;-70
2021/04/20 02:27:34;;;;;;;125.20;60.63;;;5.30;99.90;;;;;;4970281;28;20209;-70
2021/04/20 02:30:00;;;;;;;129.80;62.73;;;5.20;99.90;;;;;;4968933;28;20272;-70
2021/04/20 02:32:27;;;;;;;123.10;60.77;;;5.10;99.90;;;;;;4979025;28;20260;-73
2021/04/20 02:34:54;;;;;;;121.67;58.73;;;5.00;99.90;;;;;;4989434;28;20300;-72
2021/04/20 02:37:21;;;;;;;129.83;59.70;;;4.90;99.90;;;;;;4988262;28;20683;-71
2021/04/20 02:39:49;;;;;;;128.30;58.97;;;4.90;99.90;;;;;;4987179;28;20206;-73
2021/04/20 02:42:16;;;;;;;119.47;57.97;;;4.90;99.90;;;;;;4988002;28;20205;-72
2021/04/20 02:44:42;;;;;;;129.27;60.90;;;4.90;99.90;;;;;;4988478;28;20635;-72
2021/04/20 02:47:09;;;;;;;133.57;60.47;;;4.80;99.90;;;;;;4988079;28;20252;-72
2021/04/20 02:49:38;;;;;;;118.40;58.27;;;4.70;99.90;;;;;;4983868;28;20194;-70
2021/04/20 02:52:05;;;;;;;115.20;57.10;;;4.70;99.90;;;;;;4979112;28;20221;-71
2021/04/20 02:54:32;;;;;;;122.07;57.20;;;4.60;99.90;;;;;;4981968;28;20197;-73
2021/04/20 02:57:01;;;;;;;123.37;57.80;;;4.60;99.90;;;;;;4982013;28;20198;-72
2021/04/20 02:59:29;;;;;;;125.90;59.07;;;4.60;99.90;;;;;;4983067;28;20205;-72
2021/04/20 03:01:59;;;;;;;119.50;57.43;;;4.60;99.90;;;;;;4980191;28;22131;-72
2021/04/20 03:04:26;;;;;;;133.13;60.53;;;4.50;99.90;;;;;;4984226;28;20978;-72
2021/04/20 03:06:53;;;;;;;127.87;61.07;;;4.50;99.90;;;;;;4982354;28;20571;-71
2021/04/20 03:09:21;;;;;;;126.77;59.90;;;4.50;99.90;;;;;;4982113;28;20236;-72
2021/04/20 03:11:54;;;;;;;127.90;58.83;;;4.40;99.90;;;;;;4980801;28;20209;-72
2021/04/20 03:14:22;;;;;;;139.63;62.73;;;4.50;99.90;;;;;;4980458;28;20190;-72
2021/04/20 03:16:49;;;;;;;133.50;62.90;;;4.60;99.90;;;;;;4982223;28;20194;-72
2021/04/20 03:19:16;;;;;;;132.10;58.30;;;4.60;99.90;;;;;;4982668;28;20266;-72
2021/04/20 03:21:43;;;;;;;132.20;60.70;;;4.60;99.90;;;;;;4983806;28;20588;-71
2021/04/20 03:24:40;;;;;;;138.43;62.87;;;4.50;99.90;;;;;;4983022;28;20232;-71
2021/04/20 03:27:07;;;;;;;128.27;61.20;;;4.50;99.90;;;;;;4979886;28;20197;-70
2021/04/20 03:29:34;;;;;;;131.60;61.40;;;4.50;99.90;;;;;;4984040;28;20198;-71
2021/04/20 03:32:01;;;;;;;136.83;60.63;;;4.50;99.90;;;;;;4981405;28;20244;-71
2021/04/20 03:34:32;;;;;;;137.23;61.73;;;4.50;99.90;;;;;;4979939;28;20297;-71
2021/04/20 03:37:03;;;;;;;127.90;58.50;;;4.40;99.90;;;;;;4980377;28;20202;-71
2021/04/20 03:39:34;;;;;;;129.70;60.73;;;4.40;99.90;;;;;;4983104;28;21899;-70
2021/04/20 03:42:04;;;;;;;128.93;58.67;;;4.30;99.90;;;;;;4983044;28;20559;-71
2021/04/20 03:44:36;;;;;;;128.57;58.67;;;4.20;99.90;;;;;;4981556;28;20286;-72
2021/04/20 03:47:06;;;;;;;128.13;60.17;;;4.20;99.90;;;;;;4981842;28;20204;-71
2021/04/20 03:49:37;;;;;;;125.47;58.97;;;4.10;99.90;;;;;;4979047;28;20233;-71
2021/04/20 03:52:07;;;;;;;131.80;59.17;;;4.10;99.90;;;;;;4980255;28;20193;-72
2021/04/20 03:54:36;;;;;;;124.13;58.83;;;4.10;99.90;;;;;;4980395;28;20279;-69
2021/04/20 03:57:04;;;;;;;135.57;61.90;;;4.10;99.90;;;;;;4982307;28;20209;-72
2021/04/20 03:59:33;;;;;;;127.50;58.63;;;4.10;99.90;;;;;;4978788;28;20233;-71
2021/04/20 04:02:01;;;;;;;125.90;56.63;;;4.10;99.90;;;;;;4987354;28;20205;-71
2021/04/20 04:04:29;;;;;;;116.57;57.13;;;4.00;99.90;;;;;;4982914;28;20202;-70
2021/04/20 04:06:57;;;;;;;122.50;56.93;;;4.00;99.90;;;;;;4980441;28;20209;-72
2021/04/20 04:09:24;;;;;;;128.23;59.73;;;3.90;99.90;;;;;;4981610;28;20202;-72
2021/04/20 04:11:55;;;;;;;132.87;60.57;;;3.90;99.90;;;;;;4979975;28;20229;-71
2021/04/20 04:14:24;;;;;;;120.40;58.37;;;3.90;99.90;;;;;;4980109;28;20268;-72
2021/04/20 04:16:52;;;;;;;114.73;57.43;;;4.00;99.90;;;;;;4979919;28;20224;-72
2021/04/20 04:19:20;;;;;;;121.33;57.77;;;4.00;99.90;;;;;;4978896;28;20229;-72
2021/04/20 04:21:52;;;;;;;119.37;56.97;;;3.90;99.90;;;;;;4981688;28;20733;-72
2021/04/20 04:24:19;;;;;;;108.63;57.60;;;4.00;99.90;;;;;;4982931;28;22077;-72
2021/04/20 04:26:49;;;;;;;124.77;60.43;;;4.00;99.90;;;;;;4977984;28;20280;-72
2021/04/20 04:29:20;;;;;;;119.40;56.90;;;4.00;99.90;;;;;;4979767;28;20216;-71
2021/04/20 04:31:47;;;;;;;125.77;58.47;;;3.90;99.90;;;;;;4979744;28;20233;-71
2021/04/20 04:34:16;;;;;;;120.03;58.33;;;3.90;99.90;;;;;;4980956;28;20201;-72
2021/04/20 04:36:43;;;;;;;107.87;55.43;;;3.80;99.90;;;;;;4984065;28;20221;-72
2021/04/20 04:39:11;;;;;;;114.80;54.13;;;3.80;99.90;;;;;;4980887;28;20287;-72
2021/04/20 04:41:39;;;;;;;115.43;55.57;;;3.80;99.90;;;;;;4978860;28;20729;-71
2021/04/20 04:44:05;;;;;;;112.10;54.37;;;3.70;99.90;;;;;;4980329;28;20726;-71
2021/04/20 04:46:33;;;;;;;110.57;54.37;;;3.80;99.90;;;;;;4979851;28;20768;-71
2021/04/20 04:49:01;;;;;;;109.93;53.17;;;3.70;99.90;;;;;;4980524;28;20206;-71
2021/04/20 04:51:28;;;;;;;111.03;53.50;;;3.70;99.90;;;;;;4982132;28;20887;-71
2021/04/20 04:53:57;;;;;;;101.60;51.23;;;3.60;99.90;;;;;;4978423;28;20205;-72
2021/04/20 04:56:25;;;;;;;110.73;52.30;;;3.60;99.90;;;;;;4973828;28;20208;-73
2021/04/20 04:58:53;;;;;;;118.97;56.03;;;3.60;99.90;;;;;;4979710;28;20272;-72
2021/04/20 05:01:21;;;;;;;119.30;57.40;;;3.70;99.90;;;;;;4982452;28;20200;-71
2021/04/20 05:03:49;;;;;;;117.10;56.97;;;3.90;99.90;;;;;;4979928;28;20198;-72
2021/04/20 05:06:17;;;;;;;127.80;59.30;;;4.00;99.90;;;;;;4991487;28;20205;-72
2021/04/20 05:08:44;;;;;;;129.50;57.53;;;4.00;99.90;;;;;;5010047;28;21033;-71
2021/04/20 05:11:13;;;;;;;127.27;60.53;;;4.10;99.90;;;;;;4993839;28;20205;-71
2021/04/20 05:13:39;;;;;;;136.77;60.83;;;4.20;99.90;;;;;;4990268;28;20193;-72
2021/04/20 05:16:07;;;;;;;118.63;59.27;;;4.20;99.90;;;;;;4989296;28;20194;-71
2021/04/20 05:18:36;;;;;;;131.57;61.43;;;4.30;99.90;;;;;;4989770;28;21172;-71
2021/04/20 05:21:03;;;;;;;132.10;60.73;;;4.40;99.90;;;;;;4989027;28;20214;-71
2021/04/20 05:23:30;;;;;;;129.57;60.17;;;4.50;99.90;;;;;;4989647;28;20213;-73
2021/04/20 05:25:57;;;;;;;137.87;63.03;;;4.60;99.90;;;;;;4988581;28;20197;-71
2021/04/20 05:28:23;;;;;;;140.53;68.40;;;4.70;99.90;;;;;;4990921;28;20213;-71
2021/04/20 05:30:53;;;;;;;152.93;71.47;;;5.00;99.90;;;;;;4978819;28;20225;-71
2021/04/20 05:33:19;;;;;;;157.97;73.87;;;5.40;99.90;;;;;;4978156;28;20225;-72
2021/04/20 05:35:46;;;;;;;151.30;73.20;;;6.00;99.90;;;;;;4978513;28;20233;-71
2021/04/20 05:38:13;;;;;;;153.03;77.70;;;6.60;99.90;;;;;;4980088;28;20228;-71
2021/04/20 05:40:42;;;;;;;133.50;70.90;;;7.10;99.90;;;;;;4980160;28;20205;-72
2021/04/20 05:43:08;;;;;;;120.33;65.17;;;7.50;99.90;;;;;;4976803;28;21160;-72
2021/04/20 05:45:35;;;;;;;99.50;60.57;;;7.80;99.90;;;;;;4976052;28;20202;-72
2021/04/20 05:48:02;;;;;;;86.67;54.00;;;8.10;99.90;;;;;;4979115;28;20735;-71
2021/04/20 05:50:31;;;;;;;74.80;51.47;;;8.50;99.90;;;;;;4977758;28;20241;-71
2021/04/20 05:52:59;;;;;;;71.37;48.77;;;8.90;99.90;;;;;;4973208;28;20225;-71
2021/04/20 05:55:27;;;;;;;55.70;41.63;;;9.30;99.90;;;;;;4989554;28;20202;-71
2021/04/20 05:57:55;;;;;;;45.93;37.00;;;9.70;99.90;;;;;;4989743;28;20283;-70
2021/04/20 06:00:23;;;;;;;45.27;35.60;;;10.10;99.90;;;;;;4989208;28;20204;-70
2021/04/20 06:02:51;;;;;;;42.57;34.90;;;10.40;99.90;;;;;;4988842;28;20659;-71
2021/04/20 06:05:20;;;;;;;41.57;33.60;;;10.70;99.90;;;;;;4989068;28;20198;-69
2021/04/20 06:07:50;;;;;;;41.37;33.70;;;11.10;99.90;;;;;;4989356;28;20229;-71
2021/04/20 06:10:17;;;;;;;37.40;31.90;;;11.60;99.90;;;;;;4988459;28;20201;-70
2021/04/20 06:12:45;;;;;;;42.10;35.23;;;12.00;99.90;;;;;;4987996;28;20224;-70
2021/04/20 06:15:14;;;;;;;39.37;33.43;;;12.50;99.90;;;;;;4989765;28;20201;-70
2021/04/20 06:17:41;;;;;;;42.63;35.40;;;12.70;99.90;;;;;;4989804;28;20224;-70
2021/04/20 06:20:11;;;;;;;42.63;35.83;;;12.90;99.90;;;;;;4981592;28;20213;-71
2021/04/20 06:22:39;;;;;;;39.83;33.47;;;12.80;99.90;;;;;;4988865;28;20256;-72
2021/04/20 06:25:10;;;;;;;40.10;35.10;;;13.10;99.90;;;;;;4989599;28;20204;-70
2021/04/20 06:27:36;;;;;;;42.17;36.33;;;13.60;99.90;;;;;;4991118;28;20182;-72
2021/04/20 06:30:05;;;;;;;42.90;36.50;;;13.90;99.90;;;;;;4993074;28;20206;-71
2021/04/20 06:32:31;;;;;;;41.03;36.07;;;14.20;99.90;;;;;;4991890;28;20233;-69
2021/04/20 06:34:58;;;;;;;40.63;36.00;;;14.70;99.90;;;;;;4990555;28;20200;-69
2021/04/20 06:37:25;;;;;;;39.67;35.30;;;14.90;99.90;;;;;;4985451;28;20647;-69
2021/04/20 06:39:51;;;;;;;43.37;37.63;;;15.00;99.90;;;;;;4983041;28;20201;-67
2021/04/20 06:42:21;;;;;;;40.47;35.53;;;15.30;99.90;;;;;;4985888;28;20339;-73
2021/04/20 06:44:54;;;;;;;43.93;36.37;;;15.60;99.90;;;;;;4992172;28;20197;-73
2021/04/20 06:47:25;;;;;;;38.60;34.37;;;16.00;99.90;;;;;;4993593;28;20197;-73
2021/04/20 06:49:54;;;;;;;38.77;34.63;;;16.30;99.90;;;;;;4992994;28;20193;-69
2021/04/20 06:52:27;;;;;;;39.08;34.58;;;16.70;99.90;;;;;;4992000;28;20206;-68
2021/04/20 06:55:04;;;;;;;38.20;33.95;;;16.90;99.90;;;;;;4992818;28;20190;-69
2021/04/20 06:57:38;;;;;;;39.13;34.88;;;16.90;99.90;;;;;;5005718;28;20538;-72
2021/04/20 07:00:11;;;;;;;40.33;36.05;;;16.90;99.90;;;;;;4987751;28;20221;-71
2021/04/20 07:02:48;;;;;;;40.30;35.92;;;17.20;99.90;;;;;;4991641;28;20271;-69
2021/04/20 07:05:21;;;;;;;41.33;36.78;;;17.40;99.90;;;;;;4992292;28;20178;-69
2021/04/20 07:08:08;;;;;;;39.20;35.00;;;17.60;99.90;;;;;;4991770;28;20197;-71
2021/04/20 07:10:37;;;;;;;41.85;37.03;;;17.70;99.90;;;;;;4992440;28;20197;-72
2021/04/20 07:13:08;;;;;;;43.60;38.53;;;18.00;99.90;;;;;;4988931;28;20210;-70
2021/04/20 07:15:37;;;;;;;42.67;37.55;;;18.40;99.90;;;;;;4992635;28;20223;-70
2021/04/20 07:18:43;;;;;;;46.58;40.45;;;18.70;99.90;;;;;;4982729;28;20328;-76
2021/04/20 07:21:22;;;;;;;44.97;40.17;;;19.10;99.90;;;;;;4992141;28;20546;-71
2021/04/20 07:24:08;;;;;;;46.67;40.15;;;19.10;99.90;;;;;;4978555;28;20288;-72
2021/04/20 07:26:49;;;;;;;46.30;41.00;;;19.30;99.90;;;;;;4980804;28;20269;-72
2021/04/20 07:29:33;;;;;;;47.38;41.72;;;19.30;99.90;;;;;;4981006;28;20209;-73
2021/04/20 07:32:12;;;;;;;48.70;42.03;;;19.30;99.90;;;;;;4977889;28;20342;-74
2021/04/20 07:34:44;;;;;;;48.22;42.78;;;19.50;99.90;;;;;;4978291;28;20204;-74
2021/04/20 07:37:34;;;;;;;46.10;41.03;;;19.40;99.90;;;;;;4980543;28;20836;-72
2021/04/20 07:40:10;;;;;;;47.60;40.45;;;19.30;99.90;;;;;;4979721;28;20213;-72
2021/04/20 07:42:56;;;;;;;46.13;39.53;;;19.60;99.90;;;;;;4980309;28;20275;-73
2021/04/20 07:45:27;;;;;;;47.45;40.45;;;20.10;99.90;;;;;;4976987;28;20285;-74
2021/04/20 07:48:03;;;;;;;45.10;39.00;;;20.40;99.90;;;;;;4980682;28;20292;-72
2021/04/20 07:50:36;;;;;;;45.40;38.17;;;20.60;99.90;;;;;;4979021;28;20209;-72
2021/04/20 07:53:10;;;;;;;45.28;39.30;;;20.40;99.90;;;;;;4980797;28;20749;-71
2021/04/20 07:55:46;;;;;;;44.83;39.78;;;20.60;99.90;;;;;;4978167;28;20196;-72
2021/04/20 07:58:19;;;;;;;42.67;37.08;;;20.60;99.90;;;;;;4979912;28;20220;-72
2021/04/20 08:00:51;;;;;;;42.83;37.22;;;20.70;99.90;;;;;;4980022;28;20193;-72
2021/04/20 08:03:23;;;;;;;44.63;38.92;;;20.80;99.90;;;;;;4979224;28;20202;-70
2021/04/20 08:05:57;;;;;;;40.25;35.55;;;21.40;99.90;;;;;;4979883;28;20351;-71
2021/04/20 08:08:30;;;;;;;41.58;36.92;;;21.40;99.90;;;;;;4979754;28;20241;-72
2021/04/20 08:11:00;;;;;;;40.60;36.20;;;21.50;99.90;;;;;;4979163;28;20283;-71
2021/04/20 08:13:31;;;;;;;41.65;35.95;;;21.40;99.90;;;;;;4982119;28;20194;-71
2021/04/20 08:16:05;;;;;;;40.92;36.38;;;21.50;99.90;;;;;;4979335;28;20272;-71
2021/04/20 08:18:35;;;;;;;40.63;36.10;;;21.40;99.90;;;;;;4981575;28;20225;-71
2021/04/20 08:21:05;;;;;;;41.42;36.95;;;21.20;99.90;;;;;;4978087;28;20256;-72
2021/04/20 08:23:35;;;;;;;41.45;36.58;;;21.30;99.90;;;;;;4976609;28;20198;-71
2021/04/20 08:26:10;;;;;;;39.47;35.25;;;21.60;99.90;;;;;;4979378;28;20252;-72
2021/04/20 08:28:43;;;;;;;39.72;34.78;;;21.60;99.90;;;;;;4976615;28;20197;-70
2021/04/20 08:31:15;;;;;;;39.80;35.10;;;21.80;99.90;;;;;;4978424;28;20205;-71
2021/04/20 08:33:47;;;;;;;41.03;36.45;;;22.00;99.90;;;;;;4977253;28;20194;-70
2021/04/20 08:36:29;;;;;;;40.55;36.13;;;22.10;99.90;;;;;;4976159;28;20198;-71
2021/04/20 08:39:07;;;;;;;39.10;34.90;;;22.20;99.90;;;;;;4977520;28;20222;-72
2021/04/20 08:41:40;;;;;;;41.45;36.72;;;22.40;99.90;;;;;;4978366;28;20228;-72
2021/04/20 08:44:18;;;;;;;39.30;35.00;;;22.40;99.90;;;;;;4983060;28;20256;-72
2021/04/20 08:46:54;;;;;;;37.83;33.70;;;22.40;99.90;;;;;;4978599;28;20279;-71
2021/04/20 08:49:31;;;;;;;38.40;34.20;;;22.70;99.90;;;;;;4983893;28;20208;-70
2021/04/20 08:52:03;;;;;;;39.85;35.53;;;23.00;99.90;;;;;;4988903;28;20212;-71
2021/04/20 08:54:58;;;;;;;37.42;33.47;;;23.20;99.90;;;;;;4989932;28;20202;-73
2021/04/20 08:57:41;;;;;;;38.15;33.38;;;23.30;99.90;;;;;;4990273;28;20230;-72
2021/04/20 09:00:14;;;;;;;39.78;35.58;;;23.40;99.90;;;;;;4989625;28;20198;-71
2021/04/20 09:02:54;;;;;;;39.97;35.72;;;23.90;99.90;;;;;;4989575;28;20558;-71
2021/04/20 09:05:27;;;;;;;39.65;35.47;;;24.00;99.90;;;;;;4990089;28;20185;-71
2021/04/20 09:08:18;;;;;;;41.22;36.38;;;24.40;99.90;;;;;;4990214;28;20725;-71
2021/04/20 09:10:51;;;;;;;42.35;37.75;;;24.30;99.90;;;;;;4989459;28;20612;-71
2021/04/20 09:13:20;;;;;;;42.40;36.67;;;24.10;99.90;;;;;;4990100;28;20636;-71
2021/04/20 09:15:50;;;;;;;41.42;36.95;;;23.60;99.90;;;;;;4990193;28;20196;-70
2021/04/20 09:18:20;;;;;;;40.47;36.13;;;23.80;99.90;;;;;;4990370;28;20229;-72
2021/04/20 09:20:56;;;;;;;39.83;35.33;;;24.30;99.90;;;;;;4988432;28;20294;-71
2021/04/20 09:23:33;;;;;;;38.20;34.20;;;24.20;99.90;;;;;;4988239;28;20193;-72
2021/04/20 09:26:13;;;;;;;37.10;33.25;;;24.50;99.90;;;;;;4988196;28;20197;-72
2021/04/20 09:28:41;;;;;;;39.25;34.83;;;24.90;99.90;;;;;;4990215;28;20330;-71
2021/04/20 09:31:15;;;;;;;37.88;33.88;;;25.30;99.90;;;;;;4989434;28;20197;-72
2021/04/20 09:33:48;;;;;;;36.97;33.17;;;25.30;99.90;;;;;;4985612;28;20280;-72
2021/04/20 09:36:15;;;;;;;35.47;31.77;;;25.70;99.90;;;;;;4991024;28;20193;-73
2021/04/20 09:38:45;;;;;;;36.78;32.88;;;25.40;99.90;;;;;;5009627;28;20279;-72
2021/04/20 09:41:13;;;;;;;38.00;34.00;;;24.20;99.90;;;;;;4985482;28;20202;-72
2021/04/20 09:43:51;;;;;;;41.10;35.10;;;22.70;99.90;;;;;;4984867;28;20220;-72
2021/04/20 09:46:29;;;;;;;39.88;35.25;;;21.40;99.90;;;;;;4982737;28;20247;-71
2021/04/20 09:49:05;;;;;;;41.50;36.60;;;20.20;99.90;;;;;;4984439;28;20193;-72
2021/04/20 09:51:39;;;;;;;41.45;35.28;;;19.70;99.90;;;;;;4982141;28;20194;-71
2021/04/20 09:54:13;;;;;;;40.45;36.05;;;19.50;99.90;;;;;;4980107;28;20204;-71
2021/04/20 09:56:42;;;;;;;42.40;37.72;;;19.00;99.90;;;;;;4984214;28;20198;-72
2021/04/20 09:59:20;;;;;;;40.35;35.85;;;18.90;99.90;;;;;;4982561;28;20240;-73
2021/04/20 10:01:56;;;;;;;39.03;34.72;;;18.90;99.90;;;;;;4981753;28;20307;-72
2021/04/20 10:04:40;;;;;;;40.97;36.47;;;19.40;99.90;;;;;;4980779;28;20223;-71
2021/04/20 10:07:20;;;;;;;41.33;36.00;;;19.30;99.90;;;;;;4984933;28;20202;-70
2021/04/20 10:09:56;;;;;;;42.95;37.70;;;19.00;99.90;;;;;;4989013;28;20676;-72
2021/04/20 10:12:36;;;;;;;44.47;36.97;;;18.60;99.90;;;;;;4983431;28;20695;-72
2021/04/20 10:15:13;;;;;;;41.37;35.70;;;18.30;99.90;;;;;;4969769;28;20194;-71
2021/04/20 10:17:49;;;;;;;42.00;36.53;;;18.00;99.90;;;;;;4970260;28;20190;-70
2021/04/20 10:20:20;;;;;;;44.27;37.00;;;18.00;99.90;;;;;;4976586;28;20208;-71
2021/04/20 10:22:53;;;;;;;43.30;35.47;;;18.30;99.90;;;;;;4988919;28;20684;-70
2021/04/20 10:25:29;;;;;;;43.57;38.23;;;18.50;99.90;;;;;;4989232;28;20709;-70
2021/04/20 10:28:04;;;;;;;40.97;34.27;;;19.10;99.90;;;;;;4989364;28;20185;-70
2021/04/20 10:30:35;;;;;;;41.15;35.53;;;20.10;99.90;;;;;;4989146;28;20204;-71
2021/04/20 10:33:01;;;;;;;40.38;35.97;;;20.10;99.90;;;;;;4989104;28;20288;-71
2021/04/20 10:35:30;;;;;;;39.28;33.55;;;19.90;99.90;;;;;;4989021;28;20600;-71
2021/04/20 10:38:00;;;;;;;40.67;34.78;;;19.60;99.90;;;;;;4989271;28;20198;-72
2021/04/20 10:40:34;;;;;;;42.15;35.97;;;19.40;99.90;;;;;;4986961;28;20754;-69
2021/04/20 10:43:04;;;;;;;40.63;35.77;;;18.90;99.90;;;;;;4988418;28;20205;-71
2021/04/20 10:45:32;;;;;;;39.03;34.53;;;18.70;99.90;;;;;;4988914;28;20640;-71
2021/04/20 10:47:59;;;;;;;37.67;33.57;;;18.50;99.90;;;;;;4988487;28;20212;-70
2021/04/20 10:50:27;;;;;;;42.03;35.33;;;18.50;99.90;;;;;;4987984;28;20288;-69
2021/04/20 10:52:57;;;;;;;38.30;34.10;;;18.40;99.90;;;;;;4989028;28;20271;-69
2021/04/20 10:55:30;;;;;;;38.87;34.70;;;18.30;99.90;;;;;;4988777;28;20202;-69
2021/04/20 10:57:58;;;;;;;41.97;36.30;;;18.10;99.90;;;;;;4988666;28;20245;-70
2021/04/20 11:00:27;;;;;;;40.80;35.97;;;18.30;99.90;;;;;;4986026;28;20209;-73
2021/04/20 11:02:57;;;;;;;40.40;34.73;;;18.30;99.90;;;;;;4984196;28;20208;-73
2021/04/20 11:05:27;;;;;;;43.57;36.90;;;18.30;99.90;;;;;;4989002;28;20256;-73
2021/04/20 11:07:54;;;;;;;42.23;36.30;;;18.50;99.90;;;;;;4984263;28;20198;-74
2021/04/20 11:10:26;;;;;;;40.40;36.10;;;19.00;99.90;;;;;;4975544;28;20865;-73
2021/04/20 11:12:55;;;;;;;39.67;35.37;;;19.70;99.90;;;;;;4977499;28;20591;-73
2021/04/20 11:15:23;;;;;;;41.80;35.30;;;19.80;99.90;;;;;;4975771;28;20225;-73
2021/04/20 11:18:04;;;;;;;41.87;35.07;;;19.70;99.90;;;;;;4986295;28;20206;-72
2021/04/20 11:20:35;;;;;;;40.60;34.17;;;19.40;99.90;;;;;;4984728;28;20197;-72
2021/04/20 11:23:18;;;;;;;41.13;34.80;;;19.10;99.90;;;;;;4981229;28;21677;-73
2021/04/20 11:25:55;;;;;;;40.75;34.13;;;19.10;99.90;;;;;;4977642;28;20198;-72
2021/04/20 11:28:28;;;;;;;42.45;35.03;;;19.20;99.90;;;;;;4991052;28;20220;-73
2021/04/20 11:30:57;;;;;;;40.80;35.83;;;19.40;99.90;;;;;;4982998;28;20202;-72
2021/04/20 11:33:31;;;;;;;42.03;35.20;;;19.20;99.90;;;;;;4979941;28;20230;-72
2021/04/20 11:36:01;;;;;;;40.53;34.67;;;19.10;99.90;;;;;;4983527;28;20198;-73
2021/04/20 11:38:38;;;;;;;42.30;35.10;;;19.00;99.90;;;;;;4979396;28;20679;-72
2021/04/20 11:41:07;;;;;;;43.07;35.60;;;18.70;99.90;;;;;;4986457;28;20205;-72
2021/04/20 11:43:37;;;;;;;36.70;32.73;;;18.50;99.90;;;;;;4989753;28;20213;-73
2021/04/20 11:46:06;;;;;;;36.53;32.37;;;18.30;99.90;;;;;;4990369;28;20674;-72
2021/04/20 11:48:35;;;;;;;34.90;29.77;;;18.20;99.90;;;;;;4978805;28;20213;-72
2021/04/20 11:51:04;;;;;;;34.10;30.27;;;18.10;99.90;;;;;;4977411;28;20197;-72
2021/04/20 11:53:38;;;;;;;37.03;30.70;;;17.80;99.90;;;;;;4990038;28;20201;-72
2021/04/20 11:56:06;;;;;;;34.80;30.90;;;17.80;99.90;;;;;;4991796;28;20206;-72
2021/04/20 11:58:36;;;;;;;38.20;31.90;;;17.70;99.90;;;;;;4989404;28;20781;-72
2021/04/20 12:01:12;;;;;;;35.33;31.50;;;17.80;99.90;;;;;;4983463;28;20202;-72
2021/04/20 12:03:51;;;;;;;34.57;30.87;;;18.10;99.90;;;;;;4990773;28;20588;-73
2021/04/20 12:06:17;;;;;;;36.30;31.17;;;18.90;99.90;;;;;;4990644;28;20247;-73
2021/04/20 12:08:46;;;;;;;35.25;30.52;;;19.30;99.90;;;;;;4985291;28;20202;-73
2021/04/20 12:11:14;;;;;;;40.57;30.53;;;19.70;99.90;;;;;;4977477;28;20198;-73
2021/04/20 12:13:47;;;;;;;36.77;31.40;;;19.50;99.90;;;;;;4991400;28;20659;-73
2021/04/20 12:16:15;;;;;;;34.20;30.53;;;19.20;99.90;;;;;;4982959;28;20256;-73
2021/04/20 12:18:45;;;;;;;33.73;30.23;;;18.90;99.90;;;;;;4991443;28;20233;-72
2021/04/20 12:21:19;;;;;;;34.27;30.57;;;18.60;99.90;;;;;;4983868;28;20297;-73
2021/04/20 12:23:49;;;;;;;36.97;32.33;;;18.40;99.90;;;;;;4988993;28;20243;-72
2021/04/20 12:26:16;;;;;;;38.87;31.57;;;18.10;99.90;;;;;;4991365;28;20205;-72
2021/04/20 12:28:47;;;;;;;38.13;33.03;;;17.90;99.90;;;;;;4990102;28;20647;-72
2021/04/20 12:31:14;;;;;;;38.90;31.90;;;17.80;99.90;;;;;;4984599;28;20195;-73
2021/04/20 12:33:41;;;;;;;41.27;34.03;;;17.60;99.90;;;;;;4990409;28;20253;-72
2021/04/20 12:36:08;;;;;;;43.07;36.47;;;17.80;99.90;;;;;;4989699;28;20208;-72
2021/04/20 12:38:38;;;;;;;48.73;38.67;;;18.00;99.90;;;;;;4989620;28;20221;-72
2021/04/20 12:41:05;;;;;;;47.63;39.90;;;17.90;99.90;;;;;;4981678;28;20813;-73
2021/04/20 12:43:35;;;;;;;48.90;39.83;;;17.80;99.90;;;;;;4985632;28;20209;-72